createdAt,value
2022-08-22T00:01:39.878Z,17.73
2022-08-22T00:02:49.030Z,20.02
2022-08-22T00:04:14.031Z,17.72
2022-08-22T00:06:49.034Z,17.75
2022-08-22T00:09:29.304Z,17.71
2022-08-22T00:12:07.771Z,17.62
2022-08-22T00:14:41.111Z,17.49
2022-08-22T00:17:23.762Z,17.43
2022-08-22T00:19:55.521Z,17.37
2022-08-22T00:22:32.587Z,17.34
2022-08-22T00:25:25.605Z,17.29
2022-08-22T00:28:00.325Z,17.22
2022-08-22T00:30:29.141Z,17.18
2022-08-22T00:33:02.414Z,17.15
2022-08-22T00:35:34.310Z,17.10
2022-08-22T00:38:07.185Z,16.99
2022-08-22T00:40:49.903Z,16.88
2022-08-22T00:43:48.182Z,16.77
2022-08-22T00:46:29.512Z,16.66
2022-08-22T00:49:10.905Z,16.60
2022-08-22T00:52:14.862Z,16.56
2022-08-22T00:55:11.442Z,16.55
2022-08-22T00:57:54.583Z,16.56
2022-08-22T01:00:25.269Z,16.56
2022-08-22T01:03:12.849Z,16.53
2022-08-22T01:05:52.730Z,16.46
2022-08-22T01:08:39.357Z,16.41
2022-08-22T01:11:23.096Z,16.40
2022-08-22T01:14:10.558Z,16.38
2022-08-22T01:17:02.876Z,16.39
2022-08-22T01:20:07.670Z,16.37
2022-08-22T01:22:59.340Z,16.39
2022-08-22T01:26:05.162Z,16.39
2022-08-22T01:29:07.965Z,16.38
2022-08-22T01:32:09.762Z,16.33
2022-08-22T01:34:56.741Z,16.33
2022-08-22T01:37:47.650Z,16.35
2022-08-22T01:40:53.770Z,16.35
2022-08-22T01:43:59.193Z,16.30
2022-08-22T01:46:35.340Z,16.33
2022-08-22T01:49:11.905Z,16.39
2022-08-22T01:51:47.086Z,16.42
2022-08-22T01:54:25.172Z,16.39
2022-08-22T01:56:58.347Z,16.37
2022-08-22T01:59:42.555Z,16.42
2022-08-22T02:02:32.082Z,16.43
2022-08-22T02:05:09.234Z,16.40
2022-08-22T02:07:48.335Z,16.34
2022-08-22T02:10:22.994Z,16.28
2022-08-22T02:13:02.487Z,16.23
2022-08-22T02:15:45.241Z,16.16
2022-08-22T02:18:19.044Z,16.08
2022-08-22T02:20:58.094Z,16.04
2022-08-22T02:23:33.007Z,15.97
2022-08-22T02:26:07.347Z,15.90
2022-08-22T02:28:57.249Z,15.89
2022-08-22T02:31:37.009Z,15.83
2022-08-22T02:34:19.991Z,15.78
2022-08-22T02:36:52.283Z,15.70
2022-08-22T02:39:27.088Z,15.67
2022-08-22T02:41:58.279Z,15.67
2022-08-22T02:44:29.996Z,15.69
2022-08-22T02:47:09.680Z,15.78
2022-08-22T02:49:46.863Z,15.82
2022-08-22T02:52:18.790Z,15.83
2022-08-22T02:54:56.258Z,15.83
2022-08-22T02:57:34.556Z,15.77
2022-08-22T03:00:31.628Z,15.70
2022-08-22T03:03:06.320Z,15.61
2022-08-22T03:05:48.141Z,15.60
2022-08-22T03:08:22.432Z,15.62
2022-08-22T03:11:01.210Z,15.69
2022-08-22T03:13:40.284Z,15.70
2022-08-22T03:16:16.432Z,15.64
2022-08-22T03:18:56.223Z,15.56
2022-08-22T03:21:30.282Z,15.48
2022-08-22T03:24:05.491Z,15.44
2022-08-22T03:26:49.253Z,15.45
2022-08-22T03:29:20.324Z,15.43
2022-08-22T03:32:08.318Z,15.44
2022-08-22T03:34:35.577Z,15.43
2022-08-22T03:37:11.758Z,15.46
2022-08-22T03:39:51.306Z,15.47
2022-08-22T03:42:44.166Z,15.37
2022-08-22T03:45:26.590Z,15.21
2022-08-22T03:48:29.314Z,15.07
2022-08-22T03:51:13.418Z,14.89
2022-08-22T03:54:11.197Z,14.78
2022-08-22T03:57:18.169Z,14.65
2022-08-22T04:00:12.847Z,14.57
2022-08-22T04:03:06.066Z,14.50
2022-08-22T04:05:58.266Z,14.44
2022-08-22T04:08:51.680Z,14.43
2022-08-22T04:11:42.587Z,14.42
2022-08-22T04:14:25.478Z,14.48
2022-08-22T04:17:06.269Z,14.51
2022-08-22T04:19:49.250Z,14.55
2022-08-22T04:22:54.643Z,14.58
2022-08-22T04:25:26.842Z,14.61
2022-08-22T04:28:02.718Z,14.73
2022-08-22T04:30:35.294Z,14.81
2022-08-22T04:33:08.741Z,14.85
2022-08-22T04:35:42.772Z,14.89
2022-08-22T04:38:16.694Z,14.93
2022-08-22T04:40:50.186Z,14.98
2022-08-22T04:43:23.140Z,15.06
2022-08-22T04:45:54.968Z,15.11
2022-08-22T04:48:30.626Z,15.16
2022-08-22T04:51:00.876Z,15.16
2022-08-22T04:53:52.520Z,15.21
2022-08-22T04:56:27.245Z,15.23
2022-08-22T04:58:58.348Z,15.27
2022-08-22T05:01:37.163Z,15.32
2022-08-22T05:04:09.898Z,15.35
2022-08-22T05:06:40.152Z,15.40
2022-08-22T05:09:16.012Z,15.43
2022-08-22T05:11:43.509Z,15.47
2022-08-22T05:14:16.294Z,15.52
2022-08-22T05:16:49.343Z,15.51
2022-08-22T05:19:31.129Z,15.53
2022-08-22T05:21:58.146Z,15.54
2022-08-22T05:24:31.808Z,15.56
2022-08-22T05:27:04.795Z,15.52
2022-08-22T05:29:32.802Z,15.49
2022-08-22T05:32:02.496Z,15.47
2022-08-22T05:34:34.353Z,15.48
2022-08-22T05:37:08.385Z,15.51
2022-08-22T05:39:38.403Z,15.50
2022-08-22T05:42:13.314Z,15.56
2022-08-22T05:44:45.394Z,15.62
2022-08-22T05:47:21.741Z,15.69
2022-08-22T05:49:58.997Z,15.81
2022-08-22T05:52:39.841Z,15.95
2022-08-22T05:55:15.662Z,16.02
2022-08-22T05:57:49.285Z,16.08
2022-08-22T06:00:20.995Z,16.14
2022-08-22T06:03:00.699Z,16.28
2022-08-22T06:05:33.707Z,16.42
2022-08-22T06:08:06.110Z,16.59
2022-08-22T06:10:42.208Z,16.77
2022-08-22T06:13:15.073Z,16.87
2022-08-22T06:15:51.642Z,17.04
2022-08-22T06:18:24.610Z,17.20
2022-08-22T06:20:55.959Z,17.33
2022-08-22T06:23:26.747Z,17.45
2022-08-22T06:25:57.564Z,17.57
2022-08-22T06:28:26.668Z,17.63
2022-08-22T06:30:54.815Z,17.63
2022-08-22T06:33:25.417Z,17.76
2022-08-22T06:36:20.559Z,17.89
2022-08-22T06:38:56.345Z,18.04
2022-08-22T06:41:26.763Z,18.17
2022-08-22T06:43:54.863Z,18.30
2022-08-22T06:46:25.988Z,18.47
2022-08-22T06:48:55.266Z,18.51
2022-08-22T06:51:25.774Z,18.54
2022-08-22T06:53:57.535Z,18.62
2022-08-22T06:56:29.519Z,18.74
2022-08-22T06:58:59.653Z,18.78
2022-08-22T07:01:30.572Z,18.81
2022-08-22T07:04:00.452Z,18.95
2022-08-22T07:06:34.201Z,19.10
2022-08-22T07:09:05.667Z,19.17
2022-08-22T07:11:38.017Z,19.26
2022-08-22T07:14:06.921Z,19.41
2022-08-22T07:16:39.721Z,19.53
2022-08-22T07:19:07.953Z,19.68
2022-08-22T07:21:44.587Z,19.86
2022-08-22T07:24:15.784Z,19.93
2022-08-22T07:26:49.719Z,20.12
2022-08-22T07:29:23.313Z,20.27
2022-08-22T07:31:59.005Z,20.42
2022-08-22T07:34:40.559Z,20.57
2022-08-22T07:37:16.313Z,20.70
2022-08-22T07:39:51.096Z,20.87
2022-08-22T07:42:28.575Z,21.04
2022-08-22T07:45:07.736Z,21.19
2022-08-22T07:47:52.646Z,21.30
2022-08-22T07:50:24.558Z,21.47
2022-08-22T07:52:56.867Z,21.59
2022-08-22T07:55:26.223Z,21.77
2022-08-22T07:57:55.804Z,21.94
2022-08-22T08:00:24.085Z,22.10
2022-08-22T08:02:53.141Z,22.21
2022-08-22T08:05:24.049Z,22.30
2022-08-22T08:07:55.027Z,22.40
2022-08-22T08:10:25.656Z,22.48
2022-08-22T08:13:02.439Z,22.55
2022-08-22T08:15:32.545Z,22.62
2022-08-22T08:18:06.465Z,22.70
2022-08-22T08:20:35.789Z,22.79
2022-08-22T08:23:06.628Z,22.97
2022-08-22T08:25:48.490Z,23.13
2022-08-22T08:28:41.033Z,23.19
2022-08-22T08:31:20.419Z,23.34
2022-08-22T08:33:50.340Z,23.40
2022-08-22T08:36:34.431Z,23.38
2022-08-22T08:39:14.154Z,23.52
2022-08-22T08:41:57.946Z,23.73
2022-08-22T08:44:43.896Z,23.95
2022-08-22T08:47:28.058Z,24.10
2022-08-22T08:50:21.053Z,24.30
2022-08-22T08:53:06.672Z,24.56
2022-08-22T08:55:46.202Z,24.72
2022-08-22T08:58:34.184Z,24.75
2022-08-22T09:01:20.336Z,24.79
2022-08-22T09:04:22.318Z,24.92
2022-08-22T09:07:06.813Z,24.91
2022-08-22T09:09:52.315Z,24.97
2022-08-22T09:12:43.400Z,25.15
2022-08-22T09:15:58.556Z,25.34
2022-08-22T09:19:11.562Z,25.60
2022-08-22T09:22:14.533Z,25.82
2022-08-22T09:25:17.738Z,26.06
2022-08-22T09:27:55.810Z,26.16
2022-08-22T09:30:27.725Z,26.15
2022-08-22T09:33:00.958Z,26.16
2022-08-22T09:35:39.450Z,26.26
2022-08-22T09:38:25.758Z,26.45
2022-08-22T09:41:00.266Z,26.58
2022-08-22T09:43:37.780Z,26.65
2022-08-22T09:46:18.655Z,26.76
2022-08-22T09:49:00.776Z,26.90
2022-08-22T09:51:38.834Z,27.03
2022-08-22T09:54:23.037Z,27.22
2022-08-22T09:56:59.527Z,27.35
2022-08-22T09:59:42.850Z,27.41
2022-08-22T10:02:22.687Z,27.46
2022-08-22T10:04:58.178Z,27.58
2022-08-22T10:07:35.413Z,27.63
2022-08-22T10:10:15.678Z,27.68
2022-08-22T10:12:53.773Z,27.83
2022-08-22T10:15:33.630Z,27.95
2022-08-22T10:18:14.796Z,28.17
2022-08-22T10:20:55.129Z,28.40
2022-08-22T10:23:29.989Z,28.70
2022-08-22T10:26:12.918Z,28.80
2022-08-22T10:28:55.179Z,28.86
2022-08-22T10:31:30.253Z,29.02
2022-08-22T10:34:09.012Z,29.01
2022-08-22T10:36:45.826Z,28.86
2022-08-22T10:39:22.620Z,28.70
2022-08-22T10:42:18.573Z,28.47
2022-08-22T10:44:58.523Z,28.40
2022-08-22T10:47:35.662Z,28.08
2022-08-22T10:50:11.648Z,27.70
2022-08-22T10:52:46.903Z,27.57
2022-08-22T10:55:17.375Z,27.88
2022-08-22T10:58:02.210Z,28.23
2022-08-22T11:00:46.101Z,28.56
2022-08-22T11:03:21.827Z,28.81
2022-08-22T11:05:52.945Z,28.68
2022-08-22T11:08:34.948Z,28.60
2022-08-22T11:11:12.441Z,28.60
2022-08-22T11:13:43.573Z,28.59
2022-08-22T11:16:36.629Z,28.69
2022-08-22T11:19:38.754Z,28.87
2022-08-22T11:22:20.392Z,29.06
2022-08-22T11:25:13.930Z,29.07
2022-08-22T11:27:51.455Z,28.78
2022-08-22T11:30:24.040Z,28.31
2022-08-22T11:33:20.334Z,27.97
2022-08-22T11:35:56.132Z,27.69
2022-08-22T11:38:38.695Z,27.74
2022-08-22T11:41:11.397Z,28.06
2022-08-22T11:43:48.824Z,28.33
2022-08-22T11:46:23.547Z,28.42
2022-08-22T11:49:09.038Z,28.60
2022-08-22T11:51:58.003Z,28.57
2022-08-22T11:54:33.606Z,28.53
2022-08-22T11:57:06.542Z,28.50
2022-08-22T11:59:56.068Z,28.47
2022-08-22T12:02:31.168Z,28.45
2022-08-22T12:05:04.787Z,28.45
2022-08-22T12:07:39.253Z,28.56
2022-08-22T12:10:15.090Z,28.62
2022-08-22T12:12:55.621Z,28.70
2022-08-22T12:15:27.830Z,28.57
2022-08-22T12:18:21.765Z,28.15
2022-08-22T12:21:09.801Z,27.88
2022-08-22T12:23:55.910Z,27.76
2022-08-22T12:26:30.892Z,27.56
2022-08-22T12:29:18.564Z,27.68
2022-08-22T12:32:33.966Z,27.89
2022-08-22T12:35:29.698Z,27.94
2022-08-22T12:38:29.104Z,28.05
2022-08-22T12:41:28.267Z,28.12
2022-08-22T12:44:17.114Z,28.12
2022-08-22T12:47:00.848Z,28.11
2022-08-22T12:49:44.932Z,28.11
2022-08-22T12:52:28.493Z,28.26
2022-08-22T12:55:17.944Z,28.31
2022-08-22T12:57:56.138Z,28.33
2022-08-22T13:00:31.884Z,28.40
2022-08-22T13:03:03.162Z,28.45
2022-08-22T13:05:34.369Z,28.41
2022-08-22T13:08:12.706Z,28.42
2022-08-22T13:10:44.907Z,28.51
2022-08-22T13:13:28.237Z,28.56
2022-08-22T13:16:06.610Z,28.53
2022-08-22T13:18:37.870Z,28.60
2022-08-22T13:21:12.712Z,28.63
2022-08-22T13:23:45.368Z,28.50
2022-08-22T13:26:32.004Z,28.53
2022-08-22T13:29:25.228Z,28.49
2022-08-22T13:31:56.228Z,28.43
2022-08-22T13:34:39.834Z,28.44
2022-08-22T13:37:11.680Z,28.48
2022-08-22T13:39:44.285Z,28.39
2022-08-22T13:42:20.398Z,28.36
2022-08-22T13:45:02.503Z,28.24
2022-08-22T13:47:32.342Z,28.17
2022-08-22T13:50:08.829Z,28.24
2022-08-22T13:52:39.064Z,28.21
2022-08-22T13:55:12.716Z,28.28
2022-08-22T13:57:44.896Z,28.37
2022-08-22T14:00:59.850Z,28.43
2022-08-22T14:03:35.338Z,28.42
2022-08-22T14:06:35.506Z,28.44
2022-08-22T14:09:13.968Z,28.40
2022-08-22T14:11:45.821Z,28.37
2022-08-22T14:14:22.422Z,28.40
2022-08-22T14:16:53.554Z,28.44
2022-08-22T14:19:27.378Z,28.44
2022-08-22T14:21:59.594Z,28.37
2022-08-22T14:24:30.725Z,28.35
2022-08-22T14:27:05.441Z,28.28
2022-08-22T14:29:41.806Z,28.17
2022-08-22T14:32:35.281Z,28.17
2022-08-22T14:35:21.660Z,28.06
2022-08-22T14:37:57.403Z,28.07
2022-08-22T14:40:29.725Z,28.06
2022-08-22T14:43:06.102Z,28.11
2022-08-22T14:45:37.964Z,28.13
2022-08-22T14:48:30.556Z,28.17
2022-08-22T14:51:03.843Z,28.07
2022-08-22T14:53:33.617Z,28.03
2022-08-22T14:56:06.377Z,28.01
2022-08-22T14:58:36.748Z,28.00
2022-08-22T15:01:11.091Z,28.02
2022-08-22T15:03:40.926Z,28.00
2022-08-22T15:06:12.472Z,27.97
2022-08-22T15:08:47.970Z,27.94
2022-08-22T15:11:23.046Z,27.93
2022-08-22T15:14:01.720Z,27.87
2022-08-22T15:16:33.350Z,27.84
2022-08-22T15:19:03.251Z,27.82
2022-08-22T15:21:32.221Z,27.70
2022-08-22T15:24:09.895Z,27.57
2022-08-22T15:26:41.157Z,27.43
2022-08-22T15:29:16.217Z,27.39
2022-08-22T15:31:46.868Z,27.34
2022-08-22T15:34:24.348Z,27.36
2022-08-22T15:37:26.154Z,27.34
2022-08-22T15:40:03.024Z,27.29
2022-08-22T15:42:37.553Z,27.24
2022-08-22T15:45:05.809Z,27.23
2022-08-22T15:47:39.313Z,27.21
2022-08-22T15:50:14.647Z,27.22
2022-08-22T15:53:08.909Z,27.17
2022-08-22T15:55:37.087Z,27.08
2022-08-22T15:58:10.104Z,27.07
2022-08-22T16:00:43.838Z,27.01
2022-08-22T16:03:23.892Z,26.87
2022-08-22T16:05:55.976Z,26.75
2022-08-22T16:08:27.952Z,26.73
2022-08-22T16:11:32.444Z,26.73
2022-08-22T16:14:22.189Z,26.66
2022-08-22T16:16:56.272Z,26.64
2022-08-22T16:19:24.744Z,26.59
2022-08-22T16:22:19.764Z,26.61
2022-08-22T16:25:06.664Z,26.57
2022-08-22T16:27:50.409Z,26.49
2022-08-22T16:30:32.482Z,26.41
2022-08-22T16:32:59.801Z,26.31
2022-08-22T16:36:03.976Z,26.23
2022-08-22T16:38:41.619Z,26.10
2022-08-22T16:41:25.323Z,26.06
2022-08-22T16:44:30.731Z,26.01
2022-08-22T16:47:09.248Z,25.92
2022-08-22T16:49:53.647Z,25.87
2022-08-22T16:52:55.556Z,25.86
2022-08-22T16:55:47.528Z,25.86
2022-08-22T16:58:56.179Z,25.82
2022-08-22T17:01:44.038Z,25.78
2022-08-22T17:04:20.472Z,25.76
2022-08-22T17:07:02.210Z,25.73
2022-08-22T17:09:49.324Z,25.71
2022-08-22T17:12:30.534Z,25.69
2022-08-22T17:15:07.284Z,25.69
2022-08-22T17:17:49.511Z,25.67
2022-08-22T17:20:28.012Z,25.62
2022-08-22T17:23:00.160Z,25.54
2022-08-22T17:25:34.815Z,25.46
2022-08-22T17:28:18.153Z,25.38
2022-08-22T17:30:55.688Z,25.31
2022-08-22T17:33:35.270Z,25.27
2022-08-22T17:36:21.087Z,25.24
2022-08-22T17:39:03.680Z,25.19
2022-08-22T17:41:38.267Z,25.15
2022-08-22T17:44:18.549Z,25.12
2022-08-22T17:46:50.793Z,25.08
2022-08-22T17:49:28.723Z,25.04
2022-08-22T17:51:59.972Z,24.94
2022-08-22T17:54:35.493Z,24.88
2022-08-22T17:57:06.481Z,24.84
2022-08-22T17:59:47.562Z,24.84
2022-08-22T18:02:19.139Z,24.79
2022-08-22T18:04:52.403Z,24.76
2022-08-22T18:07:27.993Z,24.73
2022-08-22T18:09:59.257Z,24.71
2022-08-22T18:12:34.440Z,24.70
2022-08-22T18:15:09.173Z,24.64
2022-08-22T18:17:40.996Z,24.58
2022-08-22T18:20:15.354Z,24.54
2022-08-22T18:22:48.660Z,24.50
2022-08-22T18:25:32.366Z,24.40
2022-08-22T18:28:03.587Z,24.29
2022-08-22T18:30:36.797Z,24.23
2022-08-22T18:33:11.317Z,24.15
2022-08-22T18:35:44.191Z,24.09
2022-08-22T18:38:22.563Z,24.02
2022-08-22T18:40:54.401Z,23.94
2022-08-22T18:43:35.117Z,23.84
2022-08-22T18:46:25.650Z,23.73
2022-08-22T18:49:14.222Z,23.63
2022-08-22T18:51:41.507Z,23.53
2022-08-22T18:54:37.456Z,23.45
2022-08-22T18:57:24.382Z,23.35
2022-08-22T19:00:03.300Z,23.28
2022-08-22T19:02:56.172Z,23.24
2022-08-22T19:05:41.288Z,23.20
2022-08-22T19:08:49.318Z,23.19
2022-08-22T19:11:37.327Z,23.07
2022-08-22T19:14:34.184Z,23.04
2022-08-22T19:17:22.253Z,22.99
2022-08-22T19:20:14.410Z,22.87
2022-08-22T19:22:41.632Z,22.82
2022-08-22T19:25:17.591Z,22.82
2022-08-22T19:27:47.335Z,22.76
2022-08-22T19:30:38.755Z,22.75
2022-08-22T19:33:07.470Z,22.68
2022-08-22T19:36:04.767Z,22.64
2022-08-22T19:38:52.888Z,22.57
2022-08-22T19:41:43.508Z,22.50
2022-08-22T19:44:13.368Z,22.43
2022-08-22T19:46:42.055Z,22.33
2022-08-22T19:49:27.320Z,22.22
2022-08-22T19:52:26.650Z,22.04
2022-08-22T19:55:00.455Z,21.87
2022-08-22T19:57:38.706Z,21.79
2022-08-22T20:00:09.728Z,21.74
2022-08-22T20:02:50.617Z,21.65
2022-08-22T20:05:28.274Z,21.50
2022-08-22T20:08:18.025Z,21.30
2022-08-22T20:10:57.620Z,21.10
2022-08-22T20:13:27.671Z,20.92
2022-08-22T20:16:13.569Z,20.85
2022-08-22T20:19:15.439Z,20.80
2022-08-22T20:21:51.970Z,20.77
2022-08-22T20:24:25.489Z,20.74
2022-08-22T20:27:13.502Z,20.76
2022-08-22T20:29:47.036Z,20.75
2022-08-22T20:32:17.949Z,20.79
2022-08-22T20:34:46.613Z,20.80
2022-08-22T20:37:32.228Z,20.81
2022-08-22T20:40:53.319Z,20.85
2022-08-22T20:43:11.013Z,20.82
2022-08-22T20:45:47.984Z,20.81
2022-08-22T20:48:15.638Z,20.82
2022-08-22T20:50:42.463Z,20.83
2022-08-22T20:53:15.546Z,20.83
2022-08-22T20:55:52.819Z,20.82
2022-08-22T20:58:22.827Z,20.74
2022-08-22T21:00:53.213Z,20.70
2022-08-22T21:03:33.136Z,20.69
2022-08-22T21:06:12.091Z,20.60
2022-08-22T21:08:39.648Z,20.53
2022-08-22T21:11:27.671Z,20.46
2022-08-22T21:13:55.716Z,20.33
2022-08-22T21:16:31.536Z,20.28
2022-08-22T21:19:03.238Z,20.08
2022-08-22T21:21:32.018Z,19.98
2022-08-22T21:24:02.245Z,19.91
2022-08-22T21:26:35.206Z,19.84
2022-08-22T21:29:05.246Z,19.78
2022-08-22T21:31:35.282Z,19.73
2022-08-22T21:34:02.961Z,19.66
2022-08-22T21:36:31.909Z,19.63
2022-08-22T21:39:01.146Z,19.55
2022-08-22T21:41:37.250Z,19.49
2022-08-22T21:44:27.936Z,19.41
2022-08-22T21:46:55.680Z,19.32
2022-08-22T21:49:24.832Z,19.26
2022-08-22T21:51:52.764Z,19.21
2022-08-22T21:54:32.797Z,19.23
2022-08-22T21:57:16.688Z,19.23
2022-08-22T21:59:51.992Z,19.20
2022-08-22T22:02:39.690Z,19.19
2022-08-22T22:05:09.440Z,19.10
2022-08-22T22:07:38.103Z,18.91
2022-08-22T22:10:08.273Z,18.75
2022-08-22T22:12:38.569Z,18.61
2022-08-22T22:15:06.203Z,18.50
2022-08-22T22:17:33.147Z,18.46
2022-08-22T22:19:59.916Z,18.47
2022-08-22T22:22:26.657Z,18.47
2022-08-22T22:24:53.350Z,18.46
2022-08-22T22:27:20.338Z,18.44
2022-08-22T22:29:48.387Z,18.48
2022-08-22T22:32:15.264Z,18.48
2022-08-22T22:34:42.027Z,18.46
2022-08-22T22:37:11.764Z,18.42
2022-08-22T22:39:38.829Z,18.37
2022-08-22T22:42:05.954Z,18.29
2022-08-22T22:44:32.785Z,18.23
2022-08-22T22:47:02.368Z,18.11
2022-08-22T22:49:29.450Z,17.92
2022-08-22T22:51:56.506Z,17.68
2022-08-22T22:54:27.176Z,17.48
2022-08-22T22:56:54.798Z,17.36
2022-08-22T22:59:24.573Z,17.29
2022-08-22T23:02:05.097Z,17.22
2022-08-22T23:04:33.838Z,17.16
2022-08-22T23:07:00.829Z,17.14
2022-08-22T23:09:38.418Z,17.06
2022-08-22T23:12:12.573Z,16.98
2022-08-22T23:14:39.295Z,17.00
2022-08-22T23:17:07.998Z,17.07
2022-08-22T23:19:35.650Z,17.11
2022-08-22T23:22:02.337Z,17.16
2022-08-22T23:24:31.103Z,17.14
2022-08-22T23:27:00.029Z,17.09
2022-08-22T23:29:26.915Z,16.98
2022-08-22T23:31:55.729Z,16.87
2022-08-22T23:34:26.210Z,16.84
2022-08-22T23:36:55.792Z,16.83
2022-08-22T23:39:24.385Z,16.85
2022-08-22T23:41:52.106Z,16.86
2022-08-22T23:44:21.083Z,16.94
2022-08-22T23:46:47.758Z,16.99
2022-08-22T23:49:15.643Z,17.02
2022-08-22T23:51:44.905Z,16.98
2022-08-22T23:54:12.367Z,16.86
2022-08-22T23:56:41.381Z,16.74
2022-08-22T23:59:09.469Z,16.59
